Open Full Screen Window  High Contrast Mode
Wind Gusting 00 knots
04
March 05, 2015 12:25 AM CST
Weather Information
Wind Direction
  290 °
Wind Speed
  04 kt (5 mph)
Wind Gust
  00 kt (0 mph)
Altimeter
30.41 in
Visibility
10 SM
Temperature
-24° C
-10° F
Dewpoint
-25° C
-12° F
Humidity
91%
1hr Rain Fall
00.00 in.
24hr Rain Fall
00.00 in.
Sky Condition
Clear
VFR

METAR KMDS 050625Z AUTO 29004KT 10SM CLR M24/M25 A3041 RMK AO2

*Background is not an actual portrayal of the airport.